Time;durP1;ratioP1;P1;durP2;ratioP2;P2;SDS_P1;SDS_P2;PMS_P1;PMS_P2;Temp;Humidity;BMP_temperature;BMP_pressure;BME280_temperature;BME280_humidity;BME280_pressure;Samples;Min_cycle;Max_cycle;Signal;HPM_P1;HPM_P2
2023/11/24 00:04:28;;;;;;;23.08;5.85;;;;;;;;;;12820218;22;20027;-68
2023/11/24 00:09:27;;;;;;;24.27;6.00;;;;;;;;;;12818988;22;20035;-68
2023/11/24 00:14:23;;;;;;;19.92;4.80;;;;;;;;;;12819846;22;20047;-68
2023/11/24 00:19:20;;;;;;;14.82;4.60;;;;;;;;;;12819257;22;20026;-68
2023/11/24 00:24:16;;;;;;;16.15;4.85;;;;;;;;;;12819280;22;20027;-68
2023/11/24 00:29:13;;;;;;;12.13;4.28;;;;;;;;;;12819075;22;20447;-67
2023/11/24 00:34:09;;;;;;;16.45;4.50;;;;;;;;;;12819580;22;20137;-68
2023/11/24 00:39:05;;;;;;;12.88;4.40;;;;;;;;;;12813078;22;20504;-68
2023/11/24 00:44:02;;;;;;;13.07;3.95;;;;;;;;;;12819526;22;20615;-69
2023/11/24 00:48:58;;;;;;;9.35;4.25;;;;;;;;;;12818441;22;20523;-69
2023/11/24 00:53:55;;;;;;;9.77;3.80;;;;;;;;;;12812985;22;20023;-67
2023/11/24 00:58:51;;;;;;;6.00;3.70;;;;;;;;;;12818878;22;20077;-66
2023/11/24 01:03:47;;;;;;;10.27;4.38;;;;;;;;;;12818468;22;20038;-69
2023/11/24 01:08:44;;;;;;;8.40;4.15;;;;;;;;;;12819132;22;20338;-69
2023/11/24 01:13:40;;;;;;;12.18;4.03;;;;;;;;;;12818526;22;20023;-69
2023/11/24 01:18:37;;;;;;;8.32;4.05;;;;;;;;;;12791203;22;20085;-67
2023/11/24 01:23:35;;;;;;;9.88;4.07;;;;;;;;;;12817326;22;20384;-67
2023/11/24 01:28:31;;;;;;;6.65;3.95;;;;;;;;;;12818364;22;20030;-68
2023/11/24 01:33:30;;;;;;;4.43;3.20;;;;;;;;;;12817765;22;20027;-67
2023/11/24 01:38:26;;;;;;;4.97;3.55;;;;;;;;;;12818763;22;20019;-67
2023/11/24 01:43:22;;;;;;;3.90;3.40;;;;;;;;;;12812322;22;20027;-68
2023/11/24 01:48:19;;;;;;;6.03;3.72;;;;;;;;;;12818018;22;20023;-67
2023/11/24 01:53:16;;;;;;;9.13;4.03;;;;;;;;;;12817092;22;20027;-68
2023/11/24 01:58:13;;;;;;;5.22;4.07;;;;;;;;;;12813089;22;20042;-67
2023/11/24 02:03:12;;;;;;;12.32;4.43;;;;;;;;;;12816690;22;20077;-68
2023/11/24 02:08:09;;;;;;;6.50;4.10;;;;;;;;;;12816037;22;20019;-69
2023/11/24 02:13:07;;;;;;;7.30;3.90;;;;;;;;;;12817162;22;20023;-68
2023/11/24 02:18:04;;;;;;;12.88;4.43;;;;;;;;;;12817546;22;20023;-68
2023/11/24 02:23:00;;;;;;;8.65;4.00;;;;;;;;;;12819270;22;20031;-67
2023/11/24 02:27:57;;;;;;;7.63;3.97;;;;;;;;;;12821887;22;20023;-68
2023/11/24 02:32:53;;;;;;;6.32;3.88;;;;;;;;;;12821773;22;20473;-67
2023/11/24 02:37:49;;;;;;;8.00;4.15;;;;;;;;;;12821473;22;20019;-67
2023/11/24 02:42:46;;;;;;;5.53;3.42;;;;;;;;;;12820769;22;20038;-67
2023/11/24 02:47:42;;;;;;;8.05;3.67;;;;;;;;;;12815830;22;20062;-67
2023/11/24 02:52:39;;;;;;;4.35;3.47;;;;;;;;;;12819786;22;20023;-67
2023/11/24 02:57:35;;;;;;;6.90;3.40;;;;;;;;;;12807508;22;20457;-67
2023/11/24 03:02:32;;;;;;;14.23;4.05;;;;;;;;;;12813411;22;20334;-67
2023/11/24 03:07:28;;;;;;;10.82;4.80;;;;;;;;;;12820789;22;20030;-68
2023/11/24 03:12:25;;;;;;;10.88;3.72;;;;;;;;;;12820792;22;20349;-67
2023/11/24 03:17:21;;;;;;;9.02;3.40;;;;;;;;;;12820871;22;20103;-68
2023/11/24 03:22:17;;;;;;;8.00;4.28;;;;;;;;;;12821705;22;20636;-67
2023/11/24 03:27:13;;;;;;;8.20;4.70;;;;;;;;;;12822864;22;20031;-67
2023/11/24 03:32:10;;;;;;;19.35;5.03;;;;;;;;;;12822867;22;20041;-67
2023/11/24 03:37:06;;;;;;;13.65;5.13;;;;;;;;;;12822559;22;20113;-67
2023/11/24 03:42:02;;;;;;;13.23;4.90;;;;;;;;;;12822928;22;20356;-68
2023/11/24 03:46:59;;;;;;;11.57;4.63;;;;;;;;;;12822157;22;20364;-67
2023/11/24 03:51:55;;;;;;;10.38;4.70;;;;;;;;;;12820696;22;20027;-67
2023/11/24 03:56:52;;;;;;;12.60;4.82;;;;;;;;;;12823415;22;20093;-67
2023/11/24 04:01:48;;;;;;;18.55;5.00;;;;;;;;;;12817556;22;20030;-67
2023/11/24 04:06:44;;;;;;;13.82;5.45;;;;;;;;;;12822577;22;20085;-67
2023/11/24 04:11:41;;;;;;;13.25;5.13;;;;;;;;;;12822294;22;20038;-68
2023/11/24 04:16:37;;;;;;;8.15;5.30;;;;;;;;;;12823111;22;20027;-67
2023/11/24 04:21:34;;;;;;;14.35;6.30;;;;;;;;;;12822368;22;20633;-67
2023/11/24 04:26:30;;;;;;;20.27;5.70;;;;;;;;;;12822263;22;20054;-67
2023/11/24 04:31:27;;;;;;;11.45;4.18;;;;;;;;;;12823794;22;20027;-67
2023/11/24 04:36:24;;;;;;;11.55;3.88;;;;;;;;;;12821241;22;20022;-66
2023/11/24 04:41:20;;;;;;;9.55;4.28;;;;;;;;;;12821727;22;20058;-68
2023/11/24 04:46:16;;;;;;;10.05;4.25;;;;;;;;;;12821644;22;20027;-68
2023/11/24 04:51:13;;;;;;;9.65;4.50;;;;;;;;;;12816952;22;20102;-67
2023/11/24 04:56:09;;;;;;;6.10;4.05;;;;;;;;;;12820708;22;20452;-67
2023/11/24 05:01:05;;;;;;;10.98;4.47;;;;;;;;;;12820964;22;20031;-68
2023/11/24 05:06:02;;;;;;;6.70;4.18;;;;;;;;;;12821750;22;20033;-69
2023/11/24 05:10:58;;;;;;;8.68;4.50;;;;;;;;;;12820288;22;20318;-68
2023/11/24 05:15:57;;;;;;;8.70;4.72;;;;;;;;;;12819788;22;20041;-68
2023/11/24 05:20:54;;;;;;;10.27;4.45;;;;;;;;;;12815282;22;20031;-67
2023/11/24 05:25:50;;;;;;;8.88;4.78;;;;;;;;;;12819618;22;20023;-67
2023/11/24 05:30:46;;;;;;;20.00;5.80;;;;;;;;;;12817511;22;20027;-68
2023/11/24 05:35:43;;;;;;;11.30;5.63;;;;;;;;;;12818312;22;20461;-70
2023/11/24 05:40:39;;;;;;;15.88;6.00;;;;;;;;;;12818282;22;20019;-70
2023/11/24 05:45:36;;;;;;;11.80;5.15;;;;;;;;;;12818686;22;20076;-69
2023/11/24 05:50:32;;;;;;;11.60;6.47;;;;;;;;;;12814851;22;20027;-70
2023/11/24 05:55:28;;;;;;;9.35;5.47;;;;;;;;;;12812451;22;20652;-70
2023/11/24 06:00:25;;;;;;;16.35;6.32;;;;;;;;;;12791827;22;20098;-71
2023/11/24 06:05:22;;;;;;;20.50;6.60;;;;;;;;;;12814558;22;20035;-71
2023/11/24 06:10:18;;;;;;;10.73;5.65;;;;;;;;;;12816760;22;20049;-70
2023/11/24 06:15:15;;;;;;;15.23;5.78;;;;;;;;;;12818616;22;20019;-72
2023/11/24 06:20:12;;;;;;;16.25;6.15;;;;;;;;;;12816044;22;20016;-71
2023/11/24 06:25:10;;;;;;;14.63;6.05;;;;;;;;;;12814004;22;20129;-71
2023/11/24 06:30:11;;;;;;;10.02;5.07;;;;;;;;;;12815123;22;20020;-71
2023/11/24 06:35:10;;;;;;;12.30;5.18;;;;;;;;;;12819857;22;20015;-71
2023/11/24 06:40:07;;;;;;;7.60;4.90;;;;;;;;;;12812217;22;20647;-71
2023/11/24 06:45:03;;;;;;;7.13;5.30;;;;;;;;;;12816406;22;20353;-71
2023/11/24 06:50:00;;;;;;;11.50;5.80;;;;;;;;;;12818337;22;20026;-70
2023/11/24 06:54:57;;;;;;;11.90;5.35;;;;;;;;;;12808941;22;20526;-70
2023/11/24 06:59:54;;;;;;;18.45;5.43;;;;;;;;;;12816731;22;20066;-70
2023/11/24 07:04:50;;;;;;;7.43;5.43;;;;;;;;;;12817160;22;20073;-70
2023/11/24 07:09:47;;;;;;;6.80;5.60;;;;;;;;;;12819215;22;20085;-70
2023/11/24 07:14:45;;;;;;;9.98;5.85;;;;;;;;;;12821276;22;20027;-70
2023/11/24 07:19:41;;;;;;;15.10;6.10;;;;;;;;;;12820081;22;20023;-73
2023/11/24 07:24:38;;;;;;;8.10;6.28;;;;;;;;;;12820985;22;20077;-73
2023/11/24 07:29:34;;;;;;;7.85;6.20;;;;;;;;;;12819796;22;20031;-73
2023/11/24 07:34:31;;;;;;;7.85;6.65;;;;;;;;;;12793650;22;20026;-73
2023/11/24 07:39:29;;;;;;;7.50;6.70;;;;;;;;;;12821655;22;20019;-73
2023/11/24 07:44:27;;;;;;;8.15;7.18;;;;;;;;;;12819323;22;20034;-72
2023/11/24 07:49:23;;;;;;;10.40;6.90;;;;;;;;;;12819165;22;20027;-71
2023/11/24 07:54:20;;;;;;;9.93;6.75;;;;;;;;;;12784121;22;20038;-72
2023/11/24 07:59:16;;;;;;;11.85;6.78;;;;;;;;;;12789119;22;20053;-74
2023/11/24 08:04:12;;;;;;;8.20;5.90;;;;;;;;;;12818035;22;20023;-73
2023/11/24 08:09:12;;;;;;;9.93;5.50;;;;;;;;;;12818896;22;20520;-73
2023/11/24 08:14:09;;;;;;;13.43;6.13;;;;;;;;;;12819942;22;20069;-73
2023/11/24 08:19:08;;;;;;;19.65;5.90;;;;;;;;;;12819630;22;20073;-73
2023/11/24 08:24:06;;;;;;;11.18;5.60;;;;;;;;;;12819043;22;20057;-73
2023/11/24 08:29:03;;;;;;;12.10;6.22;;;;;;;;;;12819233;22;20038;-72
2023/11/24 08:34:00;;;;;;;8.60;6.35;;;;;;;;;;12818867;22;20019;-73
2023/11/24 08:38:57;;;;;;;7.05;5.78;;;;;;;;;;12793526;22;20027;-73
2023/11/24 08:43:53;;;;;;;8.63;6.10;;;;;;;;;;12818672;22;20027;-72
2023/11/24 08:48:50;;;;;;;8.20;6.00;;;;;;;;;;12817908;22;20031;-74
2023/11/24 08:53:46;;;;;;;14.15;6.65;;;;;;;;;;12784959;22;20038;-73
2023/11/24 08:58:43;;;;;;;10.10;5.40;;;;;;;;;;12809578;22;20425;-72
2023/11/24 09:03:39;;;;;;;16.38;6.72;;;;;;;;;;12818198;22;20495;-73
2023/11/24 09:08:36;;;;;;;14.73;6.43;;;;;;;;;;12792178;22;20076;-73
2023/11/24 09:13:32;;;;;;;10.57;5.55;;;;;;;;;;12817344;22;20432;-73
2023/11/24 09:18:29;;;;;;;13.50;5.20;;;;;;;;;;12819061;22;20633;-72
2023/11/24 09:23:26;;;;;;;7.13;5.40;;;;;;;;;;12817315;22;20031;-73
2023/11/24 09:28:22;;;;;;;12.85;5.88;;;;;;;;;;12790841;22;20019;-73
2023/11/24 09:33:18;;;;;;;15.65;6.72;;;;;;;;;;12817272;22;20023;-73
2023/11/24 09:38:15;;;;;;;12.68;5.88;;;;;;;;;;12819112;22;20028;-73
2023/11/24 09:43:12;;;;;;;9.95;5.78;;;;;;;;;;12818482;22;20029;-72
2023/11/24 09:48:11;;;;;;;11.52;5.63;;;;;;;;;;12818752;22;20090;-72
2023/11/24 09:53:12;;;;;;;10.98;6.13;;;;;;;;;;12817693;22;20027;-72
2023/11/24 09:58:09;;;;;;;15.80;6.83;;;;;;;;;;12810982;22;20089;-72
2023/11/24 10:03:06;;;;;;;12.38;5.45;;;;;;;;;;12811199;22;20051;-72
2023/11/24 10:08:03;;;;;;;12.52;5.50;;;;;;;;;;12817191;22;20460;-72
2023/11/24 10:13:01;;;;;;;11.55;5.82;;;;;;;;;;12815976;22;20023;-72
2023/11/24 10:18:01;;;;;;;12.77;6.22;;;;;;;;;;12791016;22;20097;-72
2023/11/24 10:22:59;;;;;;;9.23;6.13;;;;;;;;;;12816410;22;20031;-72
2023/11/24 10:27:58;;;;;;;10.45;6.40;;;;;;;;;;12818010;22;20023;-72
2023/11/24 10:32:56;;;;;;;8.88;5.65;;;;;;;;;;12788573;22;20037;-72
2023/11/24 10:37:53;;;;;;;9.00;5.70;;;;;;;;;;12816469;22;20106;-72
2023/11/24 10:42:51;;;;;;;6.60;5.80;;;;;;;;;;12818159;22;20031;-72
2023/11/24 10:48:01;;;;;;;8.65;5.78;;;;;;;;;;12820471;22;20029;-72
2023/11/24 10:53:06;;;;;;;12.20;6.10;;;;;;;;;;12820917;22;20602;-71
2023/11/24 10:58:03;;;;;;;8.88;5.05;;;;;;;;;;12820128;22;20027;-72
2023/11/24 11:03:00;;;;;;;6.75;4.68;;;;;;;;;;12815731;22;20134;-72
2023/11/24 11:08:18;;;;;;;5.25;4.32;;;;;;;;;;12788006;22;20526;-71
2023/11/24 11:13:15;;;;;;;4.50;4.10;;;;;;;;;;12819627;22;20027;-72
2023/11/24 11:18:15;;;;;;;9.77;5.30;;;;;;;;;;12820063;22;20103;-70
2023/11/24 11:23:15;;;;;;;5.80;4.97;;;;;;;;;;12819619;22;20027;-70
2023/11/24 11:28:19;;;;;;;7.10;5.53;;;;;;;;;;12819818;22;20024;-70
2023/11/24 11:33:19;;;;;;;12.38;5.50;;;;;;;;;;12819939;22;20058;-70
2023/11/24 11:38:33;;;;;;;8.95;5.05;;;;;;;;;;12819296;22;20039;-70
2023/11/24 11:43:30;;;;;;;5.82;4.75;;;;;;;;;;12820499;22;20042;-70
2023/11/24 11:48:35;;;;;;;6.80;4.95;;;;;;;;;;12820403;22;20667;-70
2023/11/24 11:53:33;;;;;;;7.65;4.85;;;;;;;;;;12811633;22;20030;-70
2023/11/24 11:58:34;;;;;;;4.65;4.03;;;;;;;;;;12816037;22;20026;-71
2023/11/24 12:03:32;;;;;;;6.70;4.13;;;;;;;;;;12817230;22;20350;-71
2023/11/24 12:08:28;;;;;;;8.60;4.57;;;;;;;;;;12814488;22;20361;-69
2023/11/24 12:13:25;;;;;;;9.43;4.63;;;;;;;;;;12817836;22;20049;-70
2023/11/24 12:18:21;;;;;;;6.57;4.80;;;;;;;;;;12819246;22;20055;-70
2023/11/24 12:23:18;;;;;;;6.38;4.53;;;;;;;;;;12818297;22;20106;-70
2023/11/24 12:28:16;;;;;;;7.35;4.45;;;;;;;;;;12819101;22;20077;-70
2023/11/24 12:33:14;;;;;;;5.80;4.70;;;;;;;;;;12818149;22;20092;-70
2023/11/24 12:38:11;;;;;;;8.93;4.57;;;;;;;;;;12819376;22;20049;-70
2023/11/24 12:43:10;;;;;;;13.05;4.90;;;;;;;;;;12817967;22;20038;-70
2023/11/24 12:48:17;;;;;;;7.25;4.07;;;;;;;;;;12820127;22;20081;-69
2023/11/24 12:53:15;;;;;;;8.93;4.40;;;;;;;;;;12819643;22;20550;-70
2023/11/24 12:58:11;;;;;;;7.47;5.10;;;;;;;;;;12819552;22;20031;-69
2023/11/24 13:03:08;;;;;;;6.22;5.00;;;;;;;;;;12818283;22;20468;-69
2023/11/24 13:08:05;;;;;;;16.35;6.35;;;;;;;;;;12811132;22;20081;-70
2023/11/24 13:13:02;;;;;;;7.55;6.50;;;;;;;;;;12817387;22;20549;-70
2023/11/24 13:17:58;;;;;;;7.90;5.75;;;;;;;;;;12819879;22;20365;-70
2023/11/24 13:22:56;;;;;;;8.02;6.00;;;;;;;;;;12808280;22;20022;-70
2023/11/24 13:27:53;;;;;;;7.82;5.80;;;;;;;;;;12791452;22;20469;-70
2023/11/24 13:32:49;;;;;;;11.32;5.90;;;;;;;;;;12790833;22;20419;-71
2023/11/24 13:37:48;;;;;;;11.50;6.43;;;;;;;;;;12816809;22;20023;-70
2023/11/24 13:42:44;;;;;;;7.78;6.03;;;;;;;;;;12817896;22;20080;-70
2023/11/24 13:47:41;;;;;;;7.80;6.00;;;;;;;;;;12819011;22;20030;-71
2023/11/24 13:52:38;;;;;;;5.68;4.38;;;;;;;;;;12818617;22;20539;-70
2023/11/24 13:57:35;;;;;;;8.07;4.80;;;;;;;;;;12818548;22;20092;-70
2023/11/24 14:02:32;;;;;;;9.52;5.03;;;;;;;;;;12817436;22;20023;-70
2023/11/24 14:07:28;;;;;;;9.98;4.75;;;;;;;;;;12816666;22;20534;-71
2023/11/24 14:12:24;;;;;;;8.73;5.07;;;;;;;;;;12816480;22;20023;-71
2023/11/24 14:17:22;;;;;;;14.52;5.55;;;;;;;;;;12817579;22;20023;-70
2023/11/24 14:22:20;;;;;;;10.75;5.45;;;;;;;;;;12816945;22;20428;-71
2023/11/24 14:27:18;;;;;;;15.05;5.38;;;;;;;;;;12823166;22;20062;-70
2023/11/24 14:32:14;;;;;;;7.85;5.63;;;;;;;;;;12823074;22;20073;-71
2023/11/24 14:37:11;;;;;;;11.60;5.50;;;;;;;;;;12817410;22;20155;-72
2023/11/24 14:42:07;;;;;;;11.10;5.38;;;;;;;;;;12824301;22;20031;-71
2023/11/24 14:47:04;;;;;;;8.55;6.18;;;;;;;;;;12825655;22;20080;-71
2023/11/24 14:52:05;;;;;;;11.60;6.28;;;;;;;;;;12797715;22;20031;-72
2023/11/24 14:57:01;;;;;;;11.13;6.13;;;;;;;;;;12824955;22;20028;-71
2023/11/24 15:02:00;;;;;;;16.52;6.63;;;;;;;;;;12823749;22;20033;-72
2023/11/24 15:07:00;;;;;;;17.15;6.88;;;;;;;;;;12821768;22;20055;-72
2023/11/24 15:11:57;;;;;;;8.35;6.80;;;;;;;;;;12823282;22;20027;-71
2023/11/24 15:17:03;;;;;;;7.32;6.60;;;;;;;;;;12797554;22;20023;-71
2023/11/24 15:22:05;;;;;;;10.40;7.18;;;;;;;;;;12820627;22;20050;-71
2023/11/24 15:27:04;;;;;;;12.38;5.80;;;;;;;;;;12823907;22;20521;-71
2023/11/24 15:32:00;;;;;;;7.65;6.07;;;;;;;;;;12823026;22;20106;-71
2023/11/24 15:36:57;;;;;;;13.95;8.35;;;;;;;;;;12823924;22;20102;-71
2023/11/24 15:41:53;;;;;;;6.55;5.38;;;;;;;;;;12814087;22;20270;-71
2023/11/24 15:46:49;;;;;;;6.40;5.90;;;;;;;;;;12816226;22;20492;-71
2023/11/24 15:51:46;;;;;;;6.80;6.15;;;;;;;;;;12810568;22;20023;-74
2023/11/24 15:56:43;;;;;;;10.15;6.60;;;;;;;;;;12820582;22;20049;-72
2023/11/24 16:01:42;;;;;;;8.50;6.13;;;;;;;;;;12821824;22;20034;-72
2023/11/24 16:06:44;;;;;;;6.93;6.05;;;;;;;;;;12822285;22;20024;-73
2023/11/24 16:11:55;;;;;;;6.87;6.27;;;;;;;;;;12819491;22;20034;-72
2023/11/24 16:16:53;;;;;;;10.02;5.65;;;;;;;;;;12792266;22;20031;-73
2023/11/24 16:21:50;;;;;;;7.40;6.57;;;;;;;;;;12818036;22;20055;-73
2023/11/24 16:26:47;;;;;;;6.82;6.20;;;;;;;;;;12812999;22;20095;-73
2023/11/24 16:31:46;;;;;;;9.10;6.30;;;;;;;;;;12816306;22;20023;-73
2023/11/24 16:36:44;;;;;;;7.10;6.32;;;;;;;;;;12817164;22;20504;-73
2023/11/24 16:41:41;;;;;;;11.75;6.85;;;;;;;;;;12811037;22;20102;-73
2023/11/24 16:46:37;;;;;;;8.68;6.45;;;;;;;;;;12817783;22;20554;-72
2023/11/24 16:51:33;;;;;;;9.57;6.50;;;;;;;;;;12818542;22;20080;-73
2023/11/24 16:56:30;;;;;;;8.38;6.10;;;;;;;;;;12821298;22;20019;-71
2023/11/24 17:01:26;;;;;;;10.00;6.47;;;;;;;;;;12817516;22;20027;-72
2023/11/24 17:06:23;;;;;;;11.43;6.50;;;;;;;;;;12813908;22;20042;-72
2023/11/24 17:11:19;;;;;;;6.72;6.00;;;;;;;;;;12815695;22;20054;-72
2023/11/24 17:16:16;;;;;;;9.25;6.18;;;;;;;;;;12817589;22;20031;-72
2023/11/24 17:21:12;;;;;;;13.25;7.65;;;;;;;;;;12793176;22;20027;-72
2023/11/24 17:26:12;;;;;;;15.63;7.50;;;;;;;;;;12814529;22;20031;-72
2023/11/24 17:31:09;;;;;;;14.15;6.57;;;;;;;;;;12792576;22;20407;-72
2023/11/24 17:36:07;;;;;;;9.77;6.45;;;;;;;;;;12820056;22;20027;-72
2023/11/24 17:41:05;;;;;;;14.25;6.72;;;;;;;;;;12818842;22;20027;-72
2023/11/24 17:46:02;;;;;;;9.60;6.10;;;;;;;;;;12816775;22;20027;-71
2023/11/24 17:51:05;;;;;;;10.40;5.78;;;;;;;;;;12818627;22;20023;-72
2023/11/24 17:56:02;;;;;;;6.10;5.50;;;;;;;;;;12818763;22;20019;-72
2023/11/24 18:00:58;;;;;;;8.30;6.07;;;;;;;;;;12819325;22;20027;-71
2023/11/24 18:05:55;;;;;;;10.13;6.40;;;;;;;;;;12820623;22;20031;-71
2023/11/24 18:10:51;;;;;;;12.27;5.72;;;;;;;;;;12820580;22;20015;-71
2023/11/24 18:15:48;;;;;;;7.70;5.95;;;;;;;;;;12820324;22;20019;-71
2023/11/24 18:20:45;;;;;;;6.85;6.15;;;;;;;;;;12793718;22;20077;-73
2023/11/24 18:25:42;;;;;;;8.50;5.95;;;;;;;;;;12814135;22;20071;-72
2023/11/24 18:30:39;;;;;;;6.70;6.15;;;;;;;;;;12819619;22;20076;-72
2023/11/24 18:35:38;;;;;;;7.15;6.40;;;;;;;;;;12821327;22;20019;-73
2023/11/24 18:40:35;;;;;;;6.20;5.70;;;;;;;;;;12820967;22;20081;-73
2023/11/24 18:45:32;;;;;;;5.80;5.40;;;;;;;;;;12792488;22;20102;-72
2023/11/24 18:50:28;;;;;;;6.40;5.88;;;;;;;;;;12820394;22;20023;-72
2023/11/24 18:55:25;;;;;;;8.38;5.78;;;;;;;;;;12820273;22;20030;-72
2023/11/24 19:00:22;;;;;;;6.53;5.93;;;;;;;;;;12819649;22;20053;-72
2023/11/24 19:05:19;;;;;;;6.70;6.10;;;;;;;;;;12821828;22;20023;-72
2023/11/24 19:10:18;;;;;;;6.72;6.22;;;;;;;;;;12824020;22;20023;-72
2023/11/24 19:15:15;;;;;;;7.18;6.57;;;;;;;;;;12796422;22;20015;-72
2023/11/24 19:20:13;;;;;;;7.32;6.55;;;;;;;;;;12822029;22;20453;-72
2023/11/24 19:25:09;;;;;;;9.40;6.57;;;;;;;;;;12813290;22;20073;-73
2023/11/24 19:30:06;;;;;;;8.70;6.68;;;;;;;;;;12822595;22;20026;-72
2023/11/24 19:35:03;;;;;;;6.90;6.35;;;;;;;;;;12846048;22;20049;-72
2023/11/24 19:40:05;;;;;;;7.13;6.53;;;;;;;;;;12819179;22;20107;-72
2023/11/24 19:45:02;;;;;;;8.52;6.90;;;;;;;;;;12821088;22;20027;-72
2023/11/24 19:49:58;;;;;;;10.02;7.40;;;;;;;;;;12821839;22;20050;-72
2023/11/24 19:54:55;;;;;;;18.85;6.68;;;;;;;;;;12819791;22;20368;-71
2023/11/24 19:59:54;;;;;;;13.05;6.75;;;;;;;;;;12793156;22;20019;-72
2023/11/24 20:04:51;;;;;;;7.47;6.75;;;;;;;;;;12820249;22;20504;-72
2023/11/24 20:09:47;;;;;;;9.52;6.13;;;;;;;;;;12822731;22;20365;-72
2023/11/24 20:14:44;;;;;;;6.70;6.20;;;;;;;;;;12821437;22;20090;-71
2023/11/24 20:19:40;;;;;;;7.10;6.40;;;;;;;;;;12822398;22;20038;-72
2023/11/24 20:24:39;;;;;;;7.38;6.65;;;;;;;;;;12822245;22;20442;-71
2023/11/24 20:29:35;;;;;;;9.25;5.72;;;;;;;;;;12815944;22;20065;-72
2023/11/24 20:34:31;;;;;;;7.00;5.68;;;;;;;;;;12819704;22;20330;-71
2023/11/24 20:39:29;;;;;;;8.02;5.57;;;;;;;;;;12820213;22;20023;-71
2023/11/24 20:44:26;;;;;;;8.15;5.10;;;;;;;;;;12821850;22;20042;-71
2023/11/24 20:49:24;;;;;;;7.53;5.05;;;;;;;;;;12821834;22;20500;-71
2023/11/24 20:54:21;;;;;;;6.03;4.50;;;;;;;;;;12820874;22;20073;-71
2023/11/24 20:59:17;;;;;;;10.77;4.55;;;;;;;;;;12820140;22;20030;-71
2023/11/24 21:04:13;;;;;;;5.22;4.40;;;;;;;;;;12791925;22;20579;-70
2023/11/24 21:09:12;;;;;;;5.38;4.43;;;;;;;;;;12818485;22;20027;-71
2023/11/24 21:14:08;;;;;;;8.30;4.70;;;;;;;;;;12821650;22;20096;-71
2023/11/24 21:19:04;;;;;;;8.73;4.03;;;;;;;;;;12820150;22;20080;-71
2023/11/24 21:24:01;;;;;;;8.00;4.57;;;;;;;;;;12820812;22;20026;-71
2023/11/24 21:28:57;;;;;;;4.68;4.18;;;;;;;;;;12815175;22;20373;-71
2023/11/24 21:33:54;;;;;;;7.32;4.28;;;;;;;;;;12813294;22;20031;-71
2023/11/24 21:38:51;;;;;;;5.65;4.18;;;;;;;;;;12815281;22;20031;-73
2023/11/24 21:43:48;;;;;;;5.00;4.47;;;;;;;;;;12816495;22;20023;-71
2023/11/24 21:48:45;;;;;;;7.38;4.18;;;;;;;;;;12819303;22;20031;-71
2023/11/24 21:53:42;;;;;;;4.97;4.20;;;;;;;;;;12818922;22;20358;-71
2023/11/24 21:58:38;;;;;;;5.55;3.72;;;;;;;;;;12819488;22;20025;-71
2023/11/24 22:03:34;;;;;;;8.95;3.67;;;;;;;;;;12818377;22;20074;-71
2023/11/24 22:08:31;;;;;;;5.22;3.85;;;;;;;;;;12819583;22;20123;-71
2023/11/24 22:13:27;;;;;;;13.93;4.10;;;;;;;;;;12819643;22;20081;-70
2023/11/24 22:18:24;;;;;;;4.32;3.60;;;;;;;;;;12820206;22;20027;-71
2023/11/24 22:23:20;;;;;;;7.20;3.70;;;;;;;;;;12820171;22;20027;-71
2023/11/24 22:28:17;;;;;;;5.40;3.75;;;;;;;;;;12814634;22;20027;-70
2023/11/24 22:33:14;;;;;;;6.45;3.53;;;;;;;;;;12819118;22;20027;-71
2023/11/24 22:38:10;;;;;;;4.60;3.92;;;;;;;;;;12820301;22;20524;-73
2023/11/24 22:43:07;;;;;;;6.10;3.70;;;;;;;;;;12823183;22;20384;-70
2023/11/24 22:48:03;;;;;;;5.15;3.97;;;;;;;;;;12825039;22;20114;-72
2023/11/24 22:52:59;;;;;;;9.43;4.18;;;;;;;;;;12796347;22;20400;-72
2023/11/24 22:57:57;;;;;;;13.82;4.10;;;;;;;;;;12818285;22;20098;-72
2023/11/24 23:02:53;;;;;;;8.20;3.78;;;;;;;;;;12822054;22;20042;-72
2023/11/24 23:07:50;;;;;;;6.07;3.67;;;;;;;;;;12822092;22;20025;-71
2023/11/24 23:12:50;;;;;;;10.90;4.05;;;;;;;;;;12822181;22;20407;-72
2023/11/24 23:17:46;;;;;;;7.78;3.90;;;;;;;;;;12823291;22;20030;-72
2023/11/24 23:22:43;;;;;;;5.72;3.60;;;;;;;;;;12822584;22;20019;-71
2023/11/24 23:27:39;;;;;;;7.22;3.60;;;;;;;;;;12820365;22;20437;-72
2023/11/24 23:32:36;;;;;;;5.28;3.72;;;;;;;;;;12814968;22;20023;-72
2023/11/24 23:37:32;;;;;;;8.88;3.58;;;;;;;;;;12794352;22;20106;-72
2023/11/24 23:42:31;;;;;;;8.23;4.00;;;;;;;;;;12820614;22;20094;-69
2023/11/24 23:47:28;;;;;;;10.05;3.63;;;;;;;;;;12822798;22;20346;-69
2023/11/24 23:52:25;;;;;;;6.75;3.75;;;;;;;;;;12822998;22;20587;-68
2023/11/24 23:57:21;;;;;;;8.55;4.03;;;;;;;;;;12823074;22;20030;-69
